createdAt,value
2022-09-10T00:01:25.563Z,100295.63
2022-09-10T00:03:54.795Z,100302.13
2022-09-10T00:06:22.681Z,100300.44
2022-09-10T00:08:49.343Z,100302.38
2022-09-10T00:11:16.087Z,100296.91
2022-09-10T00:13:42.979Z,100294.78
2022-09-10T00:16:13.178Z,100296.75
2022-09-10T00:18:40.813Z,100293.28
2022-09-10T00:21:10.431Z,100294.78
2022-09-10T00:23:37.601Z,100298.75
2022-09-10T00:26:17.126Z,100298.50
2022-09-10T00:28:44.318Z,100297.19
2022-09-10T00:31:11.409Z,100291.44
2022-09-10T00:33:38.346Z,100288.88
2022-09-10T00:36:14.259Z,100290.19
2022-09-10T00:38:41.834Z,100295.38
2022-09-10T00:41:08.805Z,100297.09
2022-09-10T00:44:15.753Z,100301.31
2022-09-10T00:46:45.052Z,100295.09
2022-09-10T00:49:18.065Z,100297.88
2022-09-10T00:51:47.116Z,100293.53
2022-09-10T00:54:15.012Z,100293.84
2022-09-10T00:56:43.230Z,100288.78
2022-09-10T00:59:10.524Z,100287.47
2022-09-10T01:01:38.705Z,100284.28
2022-09-10T01:04:06.485Z,100285.53
2022-09-10T01:06:33.995Z,100285.22
2022-09-10T01:09:01.821Z,100285.53
2022-09-10T01:12:06.054Z,100285.50
2022-09-10T01:14:47.956Z,100284.94
2022-09-10T01:17:29.992Z,100287.50
2022-09-10T01:20:19.788Z,100285.66
2022-09-10T01:23:05.679Z,100283.69
2022-09-10T01:26:11.034Z,100288.22
2022-09-10T01:28:54.682Z,100282.84
2022-09-10T01:31:49.458Z,100291.00
2022-09-10T01:34:21.528Z,100287.59
2022-09-10T01:36:50.509Z,100288.59
2022-09-10T01:39:18.287Z,100292.41
2022-09-10T01:41:46.039Z,100286.19
2022-09-10T01:44:40.658Z,100289.84
2022-09-10T01:47:14.875Z,100294.91
2022-09-10T01:49:53.460Z,100290.13
2022-09-10T01:52:25.546Z,100292.25
2022-09-10T02:01:26.668Z,100288.44
2022-09-10T02:03:57.633Z,100287.41
2022-09-10T02:06:28.431Z,100292.91
2022-09-10T02:08:57.350Z,100293.91
2022-09-10T02:11:25.706Z,100290.78
2022-09-10T02:13:53.651Z,100281.78
2022-09-10T02:16:33.502Z,100280.50
2022-09-10T02:19:01.578Z,100288.00
2022-09-10T02:21:28.449Z,100287.84
2022-09-10T02:23:58.716Z,100289.56
2022-09-10T02:26:26.106Z,100291.41
2022-09-10T02:28:54.641Z,100304.78
2022-09-10T02:31:21.704Z,100291.91
2022-09-10T02:33:49.316Z,100304.97
2022-09-10T02:36:15.937Z,100308.09
2022-09-10T02:38:42.608Z,100303.00
2022-09-10T02:41:09.892Z,100304.00
2022-09-10T02:43:38.310Z,100296.97
2022-09-10T02:46:07.465Z,100302.34
2022-09-10T02:48:36.107Z,100301.47
2022-09-10T02:51:03.189Z,100306.00
2022-09-10T02:53:31.818Z,100310.34
2022-09-10T02:56:03.244Z,100309.78
2022-09-10T02:58:34.226Z,100312.38
2022-09-10T03:01:10.290Z,100304.56
2022-09-10T03:03:39.377Z,100305.44
2022-09-10T03:06:06.456Z,100313.03
2022-09-10T03:08:33.217Z,100309.31
2022-09-10T03:11:00.052Z,100303.38
2022-09-10T03:13:27.837Z,100305.38
2022-09-10T03:15:58.707Z,100305.50
2022-09-10T03:18:27.569Z,100308.53
2022-09-10T03:20:54.373Z,100303.94
2022-09-10T03:23:21.155Z,100292.69
2022-09-10T03:25:49.806Z,100294.25
2022-09-10T03:28:17.245Z,100293.81
2022-09-10T03:30:44.109Z,100298.88
2022-09-10T03:33:11.907Z,100302.38
2022-09-10T03:35:40.212Z,100305.38
2022-09-10T03:38:06.945Z,100306.91
2022-09-10T03:40:34.300Z,100305.16
2022-09-10T03:43:01.479Z,100296.38
2022-09-10T03:45:29.772Z,100290.13
2022-09-10T03:47:56.593Z,100293.78
2022-09-10T03:50:23.477Z,100295.66
2022-09-10T03:52:51.149Z,100298.09
2022-09-10T03:55:19.294Z,100298.53
2022-09-10T03:57:46.288Z,100305.00
2022-09-10T04:00:15.201Z,100298.22
2022-09-10T04:02:42.226Z,100295.97
2022-09-10T04:05:10.373Z,100292.91
2022-09-10T04:07:37.990Z,100295.28
2022-09-10T04:10:05.423Z,100305.34
2022-09-10T04:12:32.139Z,100291.25
2022-09-10T04:14:58.816Z,100297.59
2022-09-10T04:17:26.039Z,100293.72
2022-09-10T04:19:52.751Z,100292.44
2022-09-10T04:22:19.478Z,100293.97
2022-09-10T04:24:46.171Z,100296.75
2022-09-10T04:27:12.989Z,100301.09
2022-09-10T04:29:40.667Z,100294.56
2022-09-10T04:32:07.433Z,100307.69
2022-09-10T04:34:34.272Z,100304.56
2022-09-10T04:37:02.525Z,100300.66
2022-09-10T04:39:30.714Z,100302.22
2022-09-10T04:41:58.513Z,100295.75
2022-09-10T04:44:26.079Z,100295.63
2022-09-10T04:46:52.819Z,100291.84
2022-09-10T04:49:19.823Z,100292.56
2022-09-10T04:51:47.193Z,100294.50
2022-09-10T04:54:15.264Z,100298.16
2022-09-10T04:56:43.772Z,100297.25
2022-09-10T04:59:10.955Z,100295.31
2022-09-10T05:01:38.062Z,100296.28
2022-09-10T05:04:05.289Z,100291.78
2022-09-10T05:06:35.546Z,100292.81
2022-09-10T05:09:04.321Z,100300.00
2022-09-10T05:11:32.013Z,100293.22
2022-09-10T05:13:58.890Z,100296.13
2022-09-10T05:16:28.808Z,100297.16
2022-09-10T05:18:56.355Z,100298.59
2022-09-10T05:21:25.019Z,100297.00
2022-09-10T05:23:54.014Z,100297.84
2022-09-10T05:26:20.880Z,100301.09
2022-09-10T05:28:48.215Z,100306.63
2022-09-10T05:31:17.401Z,100309.72
2022-09-10T05:33:45.176Z,100300.13
2022-09-10T05:36:14.778Z,100308.25
2022-09-10T05:38:42.873Z,100304.59
2022-09-10T05:41:10.725Z,100304.59
2022-09-10T05:43:42.199Z,100304.09
2022-09-10T05:46:10.589Z,100308.59
2022-09-10T05:48:41.867Z,100312.16
2022-09-10T05:51:10.253Z,100316.06
2022-09-10T05:53:38.356Z,100312.91
2022-09-10T05:56:07.459Z,100315.19
2022-09-10T05:58:35.551Z,100308.72
2022-09-10T06:01:02.498Z,100317.31
2022-09-10T06:03:30.395Z,100319.03
2022-09-10T06:06:01.064Z,100318.88
2022-09-10T06:08:32.539Z,100316.94
2022-09-10T06:11:07.613Z,100317.69
2022-09-10T06:13:40.148Z,100308.25
2022-09-10T06:16:07.889Z,100326.03
2022-09-10T06:18:35.740Z,100322.09
2022-09-10T06:21:10.303Z,100321.16
2022-09-10T06:23:37.658Z,100327.50
2022-09-10T06:26:08.292Z,100330.22
2022-09-10T06:28:36.971Z,100330.06
2022-09-10T06:31:05.710Z,100328.41
2022-09-10T06:33:34.453Z,100334.31
2022-09-10T06:36:02.309Z,100329.25
2022-09-10T06:38:37.033Z,100339.72
2022-09-10T06:41:08.245Z,100340.69
2022-09-10T06:43:40.545Z,100334.34
2022-09-10T06:46:50.717Z,100334.91
2022-09-10T06:49:11.053Z,100339.72
2022-09-10T06:51:39.892Z,100335.91
2022-09-10T06:54:08.757Z,100339.13
2022-09-10T06:56:35.453Z,100338.84
2022-09-10T06:59:03.999Z,100341.94
2022-09-10T07:01:35.956Z,100336.75
2022-09-10T07:04:03.058Z,100343.63
2022-09-10T07:06:33.824Z,100337.28
2022-09-10T07:09:12.533Z,100337.13
2022-09-10T07:12:09.557Z,100337.69
2022-09-10T07:14:38.874Z,100341.75
2022-09-10T07:17:08.066Z,100339.38
2022-09-10T07:19:37.245Z,100334.97
2022-09-10T07:22:09.198Z,100340.28
2022-09-10T07:24:37.972Z,100345.81
2022-09-10T07:27:11.261Z,100343.41
2022-09-10T07:29:41.127Z,100344.63
2022-09-10T07:32:13.629Z,100341.28
2022-09-10T07:34:40.720Z,100345.22
2022-09-10T07:37:07.567Z,100350.63
2022-09-10T07:39:34.557Z,100340.28
2022-09-10T07:42:02.538Z,100345.22
2022-09-10T07:44:33.336Z,100354.13
2022-09-10T07:47:03.545Z,100350.59
2022-09-10T07:49:32.761Z,100351.41
2022-09-10T07:52:00.244Z,100346.78
2022-09-10T07:54:32.283Z,100349.84
2022-09-10T07:57:00.232Z,100350.22
2022-09-10T07:59:27.560Z,100347.72
2022-09-10T08:02:00.364Z,100340.66
2022-09-10T08:04:36.604Z,100342.97
2022-09-10T08:07:05.048Z,100346.56
2022-09-10T08:09:33.422Z,100348.94
2022-09-10T08:12:02.217Z,100345.66
2022-09-10T08:14:28.969Z,100342.63
2022-09-10T08:16:56.364Z,100340.91
2022-09-10T08:19:23.170Z,100341.09
2022-09-10T08:21:51.497Z,100357.50
2022-09-10T08:24:25.013Z,100344.66
2022-09-10T08:26:52.889Z,100350.91
2022-09-10T08:29:19.628Z,100353.97
2022-09-10T08:31:46.314Z,100349.91
2022-09-10T08:34:20.640Z,100350.81
2022-09-10T08:36:55.651Z,100361.34
2022-09-10T08:39:26.495Z,100366.56
2022-09-10T08:42:01.014Z,100348.94
2022-09-10T08:44:33.930Z,100353.91
2022-09-10T08:47:10.284Z,100353.72
2022-09-10T08:49:45.830Z,100354.28
2022-09-10T08:52:34.112Z,100365.34
2022-09-10T08:55:10.070Z,100364.34
2022-09-10T08:57:42.305Z,100364.66
2022-09-10T09:00:13.325Z,100358.50
2022-09-10T09:02:49.800Z,100369.19
2022-09-10T09:05:22.883Z,100361.59
2022-09-10T09:07:53.252Z,100355.06
2022-09-10T09:10:32.985Z,100348.53
2022-09-10T09:13:23.316Z,100362.28
2022-09-10T09:16:19.449Z,100362.63
2022-09-10T09:19:14.304Z,100363.78
2022-09-10T09:21:51.422Z,100353.75
2022-09-10T09:24:22.418Z,100356.31
2022-09-10T09:26:54.801Z,100357.75
2022-09-10T09:29:40.334Z,100347.78
2022-09-10T09:32:13.693Z,100346.81
2022-09-10T09:34:44.328Z,100345.09
2022-09-10T09:37:17.984Z,100351.66
2022-09-10T09:40:02.594Z,100336.22
2022-09-10T09:42:40.433Z,100339.75
2022-09-10T09:45:39.705Z,100347.75
2022-09-10T09:48:07.654Z,100345.09
2022-09-10T09:50:38.961Z,100343.31
2022-09-10T09:53:05.561Z,100343.28
2022-09-10T09:55:41.184Z,100343.72
2022-09-10T09:58:32.332Z,100338.50
2022-09-10T10:01:05.167Z,100339.88
2022-09-10T10:03:36.001Z,100339.88
2022-09-10T10:06:06.636Z,100336.53
2022-09-10T10:08:34.228Z,100335.00
2022-09-10T10:11:01.609Z,100339.06
2022-09-10T10:13:38.822Z,100336.91
2022-09-10T10:16:21.626Z,100342.09
2022-09-10T10:18:48.304Z,100330.31
2022-09-10T10:21:20.365Z,100338.06
2022-09-10T10:23:47.860Z,100331.69
2022-09-10T10:26:20.517Z,100327.69
2022-09-10T10:28:56.206Z,100325.50
2022-09-10T10:31:23.791Z,100324.31
2022-09-10T10:34:05.905Z,100329.72
2022-09-10T10:36:40.708Z,100325.13
2022-09-10T10:39:13.356Z,100330.19
2022-09-10T10:41:59.361Z,100329.31
2022-09-10T10:44:56.457Z,100325.38
2022-09-10T10:47:33.034Z,100322.59
2022-09-10T10:50:18.549Z,100334.94
2022-09-10T10:53:09.213Z,100331.63
2022-09-10T10:55:40.611Z,100324.66
2022-09-10T10:58:25.976Z,100323.13
2022-09-10T11:00:58.507Z,100328.13
2022-09-10T11:03:30.212Z,100337.59
2022-09-10T11:06:01.124Z,100328.03
2022-09-10T11:08:33.424Z,100330.06
2022-09-10T11:11:03.966Z,100322.25
2022-09-10T11:13:37.042Z,100319.53
2022-09-10T11:16:07.101Z,100323.47
2022-09-10T11:18:39.455Z,100319.53
2022-09-10T11:21:31.386Z,100315.50
2022-09-10T11:24:02.092Z,100328.69
2022-09-10T11:26:37.310Z,100333.56
2022-09-10T11:29:22.877Z,100331.69
2022-09-10T11:32:08.952Z,100328.19
2022-09-10T11:34:44.703Z,100321.38
2022-09-10T11:37:19.393Z,100322.38
2022-09-10T11:39:49.390Z,100318.13
2022-09-10T11:42:36.989Z,100317.75
2022-09-10T11:45:13.888Z,100319.47
2022-09-10T11:47:43.469Z,100321.53
2022-09-10T11:50:38.232Z,100312.22
2022-09-10T11:53:07.846Z,100302.59
2022-09-10T11:56:05.218Z,100320.84
2022-09-10T11:58:45.524Z,100310.38
2022-09-10T12:01:22.458Z,100309.69
2022-09-10T12:04:04.514Z,100305.50
2022-09-10T12:06:52.325Z,100301.13
2022-09-10T12:09:34.887Z,100293.19
2022-09-10T12:12:10.882Z,100300.16
2022-09-10T12:14:38.955Z,100298.00
2022-09-10T12:17:14.690Z,100299.06
2022-09-10T12:19:46.981Z,100290.47
2022-09-10T12:22:37.735Z,100286.84
2022-09-10T12:25:07.912Z,100285.72
2022-09-10T12:27:43.946Z,100288.84
2022-09-10T12:30:27.608Z,100284.78
2022-09-10T12:32:55.772Z,100295.13
2022-09-10T12:35:31.534Z,100295.38
2022-09-10T12:38:35.888Z,100285.22
2022-09-10T12:41:10.355Z,100286.75
2022-09-10T12:43:40.240Z,100281.66
2022-09-10T12:46:07.457Z,100280.00
2022-09-10T12:48:36.859Z,100287.13
2022-09-10T12:51:38.894Z,100275.31
2022-09-10T12:54:16.242Z,100273.06
2022-09-10T12:57:03.810Z,100272.41
2022-09-10T12:59:46.519Z,100271.25
2022-09-10T13:02:46.482Z,100264.44
2022-09-10T13:05:24.948Z,100260.66
2022-09-10T13:08:11.519Z,100254.50
2022-09-10T13:10:39.267Z,100254.72
2022-09-10T13:13:23.815Z,100242.38
2022-09-10T13:15:52.192Z,100248.84
2022-09-10T13:18:30.881Z,100237.88
2022-09-10T13:20:58.739Z,100247.47
2022-09-10T13:23:52.513Z,100239.56
2022-09-10T13:26:28.458Z,100239.34
2022-09-10T13:28:55.210Z,100241.00
2022-09-10T13:31:28.289Z,100238.69
2022-09-10T13:34:14.250Z,100231.50
2022-09-10T13:36:52.409Z,100240.47
2022-09-10T13:40:10.550Z,100232.38
2022-09-10T13:42:46.136Z,100225.25
2022-09-10T13:45:36.525Z,100245.34
2022-09-10T13:48:11.010Z,100231.13
2022-09-10T13:51:05.963Z,100230.31
2022-09-10T13:53:33.480Z,100232.63
2022-09-10T13:56:03.681Z,100232.72
2022-09-10T13:58:35.565Z,100228.38
2022-09-10T14:01:04.454Z,100228.88
2022-09-10T14:03:36.073Z,100235.59
2022-09-10T14:06:08.368Z,100237.00
2022-09-10T14:08:45.188Z,100225.75
2022-09-10T14:11:11.782Z,100232.44
2022-09-10T14:13:47.656Z,100237.41
2022-09-10T14:16:19.520Z,100231.63
2022-09-10T14:18:51.055Z,100230.34
2022-09-10T14:21:19.533Z,100234.53
2022-09-10T14:23:47.965Z,100228.97
2022-09-10T14:26:24.291Z,100241.47
2022-09-10T14:28:52.441Z,100234.66
2022-09-10T14:31:27.491Z,100232.28
2022-09-10T14:33:55.991Z,100229.06
2022-09-10T14:36:33.654Z,100231.09
2022-09-10T14:39:20.871Z,100237.00
2022-09-10T14:41:48.530Z,100246.28
2022-09-10T14:44:20.503Z,100248.56
2022-09-10T14:46:58.938Z,100244.63
2022-09-10T14:49:34.172Z,100246.56
2022-09-10T14:52:01.944Z,100240.03
2022-09-10T14:54:30.571Z,100236.47
2022-09-10T14:56:58.238Z,100246.00
2022-09-10T14:59:33.122Z,100248.78
2022-09-10T15:02:03.446Z,100251.84
2022-09-10T15:04:30.262Z,100245.84
2022-09-10T15:06:58.771Z,100253.31
2022-09-10T15:09:27.297Z,100256.25
2022-09-10T15:11:56.888Z,100254.00
2022-09-10T15:14:23.762Z,100263.03
2022-09-10T15:16:52.220Z,100253.19
2022-09-10T15:19:19.840Z,100253.53
2022-09-10T15:21:46.823Z,100254.22
2022-09-10T15:24:15.574Z,100246.50
2022-09-10T15:26:42.777Z,100253.72
2022-09-10T15:29:10.275Z,100242.22
2022-09-10T15:31:37.671Z,100245.66
2022-09-10T15:34:06.574Z,100253.81
2022-09-10T15:36:35.262Z,100253.72
2022-09-10T15:39:01.935Z,100249.63
2022-09-10T15:41:29.455Z,100247.06
2022-09-10T15:43:56.839Z,100250.66
2022-09-10T15:46:26.642Z,100259.06
2022-09-10T15:48:54.004Z,100250.59
2022-09-10T15:51:23.354Z,100233.69
2022-09-10T15:53:51.483Z,100240.00
2022-09-10T15:56:19.275Z,100245.97
2022-09-10T15:58:55.122Z,100264.09
2022-09-10T16:01:22.717Z,100251.84
2022-09-10T16:03:51.752Z,100258.41
2022-09-10T16:06:21.920Z,100262.38
2022-09-10T16:08:56.708Z,100267.78
2022-09-10T16:11:24.814Z,100272.28
2022-09-10T16:13:51.514Z,100274.41
2022-09-10T16:16:20.729Z,100268.00
2022-09-10T16:18:48.408Z,100288.31
2022-09-10T16:21:18.672Z,100266.31
2022-09-10T16:23:46.277Z,100274.34
2022-09-10T16:26:15.923Z,100274.78
2022-09-10T16:28:58.307Z,100280.91
2022-09-10T16:31:27.418Z,100274.97
2022-09-10T16:33:55.366Z,100274.38
2022-09-10T16:36:23.757Z,100290.06
2022-09-10T16:38:56.188Z,100295.09
2022-09-10T16:41:24.355Z,100296.56
2022-09-10T16:43:51.540Z,100294.97
2022-09-10T16:46:19.165Z,100297.28
2022-09-10T16:48:45.929Z,100298.91
2022-09-10T16:51:17.139Z,100312.13
2022-09-10T16:53:45.247Z,100321.97
2022-09-10T16:56:14.713Z,100324.50
2022-09-10T16:58:42.567Z,100322.38
2022-09-10T17:01:12.652Z,100320.59
2022-09-10T17:03:40.891Z,100314.16
2022-09-10T17:06:20.628Z,100323.06
2022-09-10T17:08:47.809Z,100319.47
2022-09-10T17:11:16.468Z,100329.19
2022-09-10T17:13:43.439Z,100329.19
2022-09-10T17:16:23.168Z,100338.25
2022-09-10T17:19:18.512Z,100341.53
2022-09-10T17:21:48.894Z,100341.81
2022-09-10T17:24:15.555Z,100345.06
2022-09-10T17:26:42.237Z,100349.47
2022-09-10T17:29:17.204Z,100347.22
2022-09-10T17:31:46.665Z,100346.03
2022-09-10T17:34:14.495Z,100345.19
2022-09-10T17:36:43.346Z,100345.75
2022-09-10T17:39:10.500Z,100354.00
2022-09-10T17:41:37.457Z,100352.53
2022-09-10T17:44:04.175Z,100346.94
2022-09-10T17:46:31.540Z,100348.00
2022-09-10T17:49:00.094Z,100352.75
2022-09-10T17:51:31.491Z,100354.59
2022-09-10T17:53:58.533Z,100359.47
2022-09-10T17:56:26.466Z,100356.59
2022-09-10T17:59:01.775Z,100360.47
2022-09-10T18:01:32.698Z,100363.25
2022-09-10T18:03:59.527Z,100357.28
2022-09-10T18:06:29.112Z,100368.59
2022-09-10T18:09:03.020Z,100363.56
2022-09-10T18:11:32.344Z,100362.41
2022-09-10T18:14:00.299Z,100371.13
2022-09-10T18:16:29.505Z,100364.56
2022-09-10T18:19:01.791Z,100368.50
2022-09-10T18:21:31.153Z,100375.28
2022-09-10T18:24:04.665Z,100373.13
2022-09-10T18:26:34.718Z,100373.44
2022-09-10T18:29:04.506Z,100377.34
2022-09-10T18:31:33.621Z,100370.28
2022-09-10T18:34:01.593Z,100374.09
2022-09-10T18:36:31.821Z,100378.03
2022-09-10T18:39:02.295Z,100378.88
2022-09-10T18:41:31.614Z,100372.06
2022-09-10T18:44:00.837Z,100369.41
2022-09-10T18:46:29.140Z,100366.66
2022-09-10T18:48:56.121Z,100375.09
2022-09-10T18:51:24.981Z,100373.94
2022-09-10T18:53:56.733Z,100375.09
2022-09-10T18:56:25.453Z,100370.34
2022-09-10T18:59:00.633Z,100386.06
2022-09-10T19:01:29.349Z,100381.50
2022-09-10T19:03:57.668Z,100370.94
2022-09-10T19:06:30.152Z,100362.28
2022-09-10T19:09:01.820Z,100365.25
2022-09-10T19:11:34.193Z,100371.38
2022-09-10T19:14:03.284Z,100365.72
2022-09-10T19:16:31.670Z,100370.84
2022-09-10T19:19:01.084Z,100361.59
2022-09-10T19:21:28.935Z,100366.44
2022-09-10T19:24:01.688Z,100363.09
2022-09-10T19:26:34.088Z,100368.00
2022-09-10T19:29:01.852Z,100364.91
2022-09-10T19:31:30.156Z,100360.00
2022-09-10T19:34:01.912Z,100360.19
2022-09-10T19:36:30.954Z,100353.84
2022-09-10T19:38:59.620Z,100351.34
2022-09-10T19:41:26.381Z,100357.19
2022-09-10T19:43:54.573Z,100361.81
2022-09-10T19:46:23.290Z,100356.72
2022-09-10T19:48:51.870Z,100367.28
2022-09-10T19:51:20.367Z,100357.38
2022-09-10T19:53:48.113Z,100363.13
2022-09-10T19:56:20.685Z,100362.16
2022-09-10T19:58:52.553Z,100365.44
2022-09-10T20:01:24.618Z,100368.03
2022-09-10T20:03:53.434Z,100378.75
2022-09-10T20:06:21.627Z,100372.50
2022-09-10T20:08:50.445Z,100374.94
2022-09-10T20:11:23.368Z,100366.53
2022-09-10T20:13:54.748Z,100365.16
2022-09-10T20:16:22.211Z,100370.53
2022-09-10T20:18:49.522Z,100357.94
2022-09-10T20:21:18.557Z,100364.28
2022-09-10T20:23:47.125Z,100355.31
2022-09-10T20:26:16.119Z,100364.75
2022-09-10T20:28:44.211Z,100362.66
2022-09-10T20:31:13.001Z,100361.25
2022-09-10T20:33:42.391Z,100372.56
2022-09-10T20:36:13.044Z,100363.88
2022-09-10T20:38:40.860Z,100362.88
2022-09-10T20:41:07.989Z,100367.47
2022-09-10T20:43:34.689Z,100362.66
2022-09-10T20:46:01.542Z,100368.03
2022-09-10T20:48:28.268Z,100375.34
2022-09-10T20:50:56.851Z,100379.78
2022-09-10T20:53:23.581Z,100378.81
2022-09-10T20:55:50.627Z,100375.88
2022-09-10T20:58:17.764Z,100376.28
2022-09-10T21:00:45.597Z,100373.66
2022-09-10T21:03:12.882Z,100371.25
2022-09-10T21:05:39.832Z,100376.91
2022-09-10T21:08:06.737Z,100375.22
2022-09-10T21:10:37.436Z,100377.31
2022-09-10T21:13:04.581Z,100384.91
2022-09-10T21:15:31.437Z,100384.50
2022-09-10T21:17:58.808Z,100376.97
2022-09-10T21:20:25.879Z,100386.31
2022-09-10T21:22:52.792Z,100387.34
2022-09-10T21:25:19.583Z,100387.72
2022-09-10T21:27:47.310Z,100381.97
2022-09-10T21:30:14.028Z,100390.75
2022-09-10T21:32:40.672Z,100393.28
2022-09-10T21:35:07.775Z,100401.03
2022-09-10T21:37:34.701Z,100402.31
2022-09-10T21:40:02.294Z,100404.13
2022-09-10T21:42:29.021Z,100396.78
2022-09-10T21:44:55.713Z,100398.78
2022-09-10T21:47:22.389Z,100404.56
2022-09-10T21:49:49.032Z,100403.59
2022-09-10T21:52:15.680Z,100405.84
2022-09-10T21:54:42.340Z,100403.88
2022-09-10T21:57:11.544Z,100399.63
2022-09-10T21:59:38.276Z,100406.69
2022-09-10T22:02:05.083Z,100401.03
2022-09-10T22:04:31.896Z,100407.38
2022-09-10T22:06:58.789Z,100404.44
2022-09-10T22:09:26.410Z,100410.50
2022-09-10T22:11:54.261Z,100406.38
2022-09-10T22:14:23.028Z,100415.72
2022-09-10T22:16:50.716Z,100406.56
2022-09-10T22:19:19.968Z,100407.16
2022-09-10T22:21:47.201Z,100393.84
2022-09-10T22:24:14.782Z,100400.22
2022-09-10T22:26:43.493Z,100392.34
2022-09-10T22:29:10.753Z,100398.25
2022-09-10T22:31:37.730Z,100394.16
2022-09-10T22:34:15.987Z,100397.13
2022-09-10T22:36:44.386Z,100395.72
2022-09-10T22:39:13.598Z,100396.56
2022-09-10T22:41:40.421Z,100403.34
2022-09-10T22:44:07.756Z,100405.31
2022-09-10T22:46:35.026Z,100409.53
2022-09-10T22:49:01.988Z,100404.31
2022-09-10T22:51:30.800Z,100411.13
2022-09-10T22:53:58.238Z,100424.22
2022-09-10T22:56:28.886Z,100411.94
2022-09-10T22:58:57.512Z,100419.31
2022-09-10T23:01:27.756Z,100416.75
2022-09-10T23:03:59.358Z,100424.94
2022-09-10T23:06:28.469Z,100425.22
2022-09-10T23:08:59.805Z,100421.00
2022-09-10T23:11:29.159Z,100426.50
2022-09-10T23:13:58.175Z,100420.56
2022-09-10T23:16:28.975Z,100435.25
2022-09-10T23:18:56.842Z,100442.03
2022-09-10T23:21:25.256Z,100433.97
2022-09-10T23:23:54.536Z,100432.28
2022-09-10T23:26:21.887Z,100435.41
2022-09-10T23:28:48.867Z,100439.16
2022-09-10T23:31:17.905Z,100435.81
2022-09-10T23:33:59.319Z,100441.44
2022-09-10T23:36:27.959Z,100435.06
2022-09-10T23:38:54.633Z,100432.97
2022-09-10T23:41:21.748Z,100437.63
2022-09-10T23:43:51.405Z,100431.84
2022-09-10T23:46:18.775Z,100431.84
2022-09-10T23:48:49.497Z,100436.78
2022-09-10T23:51:17.290Z,100430.13
2022-09-10T23:53:45.183Z,100435.81
2022-09-10T23:56:13.023Z,100439.03
2022-09-10T23:58:39.833Z,100432.53
